Terminal Aerodrome Forecast
Issued by NWS Wilmington, OH

Current Version | Previous Version | Text Only | Print | Product List | Glossary Off
Versions: 1 2 3 4 5 6 7 8 9 10 11 12 13 14 15 16 17 18 19 20 21 22 23 24 25 26 27 28 29 30

000
FTUS41 KILN 271100
TAFCVG
TAF
KCVG 271135Z 2712/2818 05006KT P6SM OVC080
     FM271400 01007KT P6SM SCT080
     FM271900 35008KT P6SM SCT025
     FM280000 36004KT P6SM SKC
     FM281400 12004KT P6SM SCT250=

USA.gov is the U.S. government's official web portal to all federal, state and local government web resources and services.